createdAt,value
2023-01-21T18:48:26.034Z,1028.45
2023-01-21T18:49:25.946Z,1028.41
2023-01-21T18:50:25.856Z,1028.45
2023-01-21T18:51:25.955Z,1028.45
2023-01-21T18:52:25.732Z,1028.41
2023-01-21T18:53:25.683Z,1028.39
2023-01-21T18:54:25.627Z,1028.42
2023-01-21T18:55:25.572Z,1028.43
2023-01-21T18:56:25.545Z,1028.47
2023-01-21T18:57:25.470Z,1028.47
2023-01-21T18:58:25.794Z,1028.48
2023-01-21T18:59:25.409Z,1028.48
2023-01-21T19:00:25.353Z,1028.48
2023-01-21T19:01:25.365Z,1028.50
2023-01-21T19:02:25.350Z,1028.45
2023-01-21T19:03:25.222Z,1028.46
2023-01-21T19:04:25.125Z,1028.42
2023-01-21T19:05:25.087Z,1028.40
2023-01-21T19:06:25.079Z,1028.33
2023-01-21T19:07:25.120Z,1028.39
2023-01-21T19:08:24.998Z,1028.47
2023-01-21T19:09:24.911Z,1028.47
2023-01-21T19:10:24.835Z,1028.45
2023-01-21T19:11:24.757Z,1028.45
2023-01-21T19:12:24.712Z,1028.47
2023-01-21T19:13:24.660Z,1028.43
2023-01-21T19:14:24.604Z,1028.43
2023-01-21T19:15:24.557Z,1028.43
2023-01-21T19:16:24.690Z,1028.39
2023-01-21T19:17:24.500Z,1028.41
2023-01-21T19:18:24.405Z,1028.40
2023-01-21T19:19:24.437Z,1028.40
2023-01-21T19:20:24.404Z,1028.36
2023-01-21T19:21:24.296Z,1028.35
2023-01-21T19:22:24.256Z,1028.39
2023-01-21T19:23:24.239Z,1028.37
2023-01-21T19:24:24.110Z,1028.36
2023-01-21T19:25:24.101Z,1028.37
2023-01-21T19:27:07.384Z,1028.32
2023-01-21T19:28:07.451Z,1028.29
2023-01-21T19:29:07.287Z,1028.37
2023-01-21T19:30:07.297Z,1028.32
2023-01-21T19:31:07.326Z,1028.36
2023-01-21T19:32:07.218Z,1028.39
2023-01-21T19:33:07.094Z,1028.38
2023-01-21T19:34:07.055Z,1028.36
2023-01-21T19:35:06.991Z,1028.40
2023-01-21T19:36:07.032Z,1028.39
2023-01-21T19:37:06.891Z,1028.35
2023-01-21T19:38:06.906Z,1028.31
2023-01-21T19:39:06.796Z,1028.40
2023-01-21T19:40:06.754Z,1028.39
2023-01-21T19:41:06.752Z,1028.37
2023-01-21T19:42:08.722Z,1028.32
2023-01-21T19:43:06.690Z,1028.30
2023-01-21T19:44:06.552Z,1028.33
2023-01-21T19:45:06.511Z,1028.34
2023-01-21T19:46:06.474Z,1028.32
2023-01-21T19:47:06.407Z,1028.34
2023-01-21T19:48:06.354Z,1028.34
2023-01-21T19:49:06.342Z,1028.24
2023-01-21T19:50:06.260Z,1028.28
2023-01-21T19:51:06.439Z,1028.28
2023-01-21T19:52:06.183Z,1028.33
2023-01-21T19:53:06.125Z,1028.30
2023-01-21T19:54:06.113Z,1028.29
2023-01-21T19:55:06.018Z,1028.30
2023-01-21T19:56:06.017Z,1028.29
2023-01-21T19:57:05.915Z,1028.26
2023-01-21T19:58:05.887Z,1028.32
2023-01-21T19:59:05.814Z,1028.33
2023-01-21T20:00:05.767Z,1028.28
2023-01-21T20:01:05.822Z,1028.27
2023-01-21T20:02:05.766Z,1028.29
2023-01-21T20:03:05.624Z,1028.30
2023-01-21T20:04:05.573Z,1028.32
2023-01-21T20:05:05.531Z,1028.24
2023-01-21T20:06:05.528Z,1028.29
2023-01-21T20:07:05.426Z,1028.30
2023-01-21T20:08:05.402Z,1028.35
2023-01-21T20:09:05.427Z,1028.29
2023-01-21T20:10:05.309Z,1028.32
2023-01-21T20:11:05.233Z,1028.30
2023-01-21T20:12:06.144Z,1028.26
2023-01-21T20:13:05.191Z,1028.28
2023-01-21T20:14:05.088Z,1028.28
2023-01-21T20:15:05.034Z,1028.28
2023-01-21T20:16:05.037Z,1028.25
2023-01-21T20:17:04.947Z,1028.27
2023-01-21T20:18:04.896Z,1028.25
2023-01-21T20:19:04.844Z,1028.29
2023-01-21T20:20:04.904Z,1028.30
2023-01-21T20:21:04.739Z,1028.30
2023-01-21T20:22:04.706Z,1028.32
2023-01-21T20:23:04.640Z,1028.34
2023-01-21T20:24:04.670Z,1028.33
2023-01-21T20:25:04.574Z,1028.32
2023-01-21T20:26:04.610Z,1028.33
2023-01-21T20:27:05.849Z,1028.37
2023-01-21T20:28:04.464Z,1028.33
2023-01-21T20:30:02.652Z,1028.26
2023-01-21T20:30:47.727Z,1028.22
2023-01-21T20:31:47.694Z,1028.25
2023-01-21T20:32:47.603Z,1028.29
2023-01-21T20:33:47.537Z,1028.33
2023-01-21T20:34:47.484Z,1028.32
2023-01-21T20:36:47.387Z,1028.34
2023-01-21T20:37:47.336Z,1028.33
2023-01-21T20:38:47.475Z,1028.37
2023-01-21T20:39:47.260Z,1028.36
2023-01-21T20:40:47.193Z,1028.38
2023-01-21T20:41:47.143Z,1028.36
2023-01-21T20:42:47.091Z,1028.39
2023-01-21T20:43:47.050Z,1028.33
2023-01-21T20:44:46.996Z,1028.35
2023-01-21T20:45:46.998Z,1028.38
2023-01-21T20:46:46.895Z,1028.35
2023-01-21T20:47:50.191Z,1028.33
2023-01-21T20:48:46.801Z,1028.32
2023-01-21T20:49:46.969Z,1028.30
2023-01-21T20:50:46.841Z,1028.29
2023-01-21T20:51:46.652Z,1028.31
2023-01-21T20:52:46.602Z,1028.29
2023-01-21T20:53:46.560Z,1028.31
2023-01-21T20:54:46.519Z,1028.32
2023-01-21T20:55:46.483Z,1028.31
2023-01-21T20:56:46.406Z,1028.34
2023-01-21T20:57:46.361Z,1028.35
2023-01-21T20:58:46.307Z,1028.33
2023-01-21T20:59:46.276Z,1028.36
2023-01-21T21:00:46.238Z,1028.40
2023-01-21T21:01:46.165Z,1028.38
2023-01-21T21:02:46.120Z,1028.41
2023-01-21T21:03:46.066Z,1028.42
2023-01-21T21:04:46.021Z,1028.41
2023-01-21T21:05:45.972Z,1028.39
2023-01-21T21:06:45.976Z,1028.46
2023-01-21T21:07:45.870Z,1028.49
2023-01-21T21:08:45.831Z,1028.47
2023-01-21T21:09:45.771Z,1028.51
2023-01-21T21:10:45.724Z,1028.47
2023-01-21T21:11:45.691Z,1028.52
2023-01-21T21:12:45.625Z,1028.54
2023-01-21T21:13:45.579Z,1028.49
2023-01-21T21:14:45.532Z,1028.46
2023-01-21T21:15:46.715Z,1028.51
2023-01-21T21:16:45.531Z,1028.50
2023-01-21T21:17:45.380Z,1028.55
2023-01-21T21:18:45.335Z,1028.50
2023-01-21T21:19:45.283Z,1028.48
2023-01-21T21:20:45.235Z,1028.45
2023-01-21T21:21:45.185Z,1028.46
2023-01-21T21:22:45.135Z,1028.45
2023-01-21T21:23:45.086Z,1028.42
2023-01-21T21:24:45.039Z,1028.44
2023-01-21T21:25:44.996Z,1028.43
2023-01-21T21:26:44.944Z,1028.43
2023-01-21T21:27:44.924Z,1028.46
2023-01-21T21:28:44.845Z,1028.45
2023-01-21T21:29:44.812Z,1028.45
2023-01-21T21:30:44.840Z,1028.47
2023-01-21T21:31:44.763Z,1028.43
2023-01-21T21:32:44.656Z,1028.41
2023-01-21T21:33:44.602Z,1028.41
2023-01-21T21:34:47.169Z,1028.39
2023-01-21T21:38:10.204Z,1028.42
2023-01-21T21:39:10.155Z,1028.45
2023-01-21T21:40:10.114Z,1028.41
2023-01-21T21:41:10.063Z,1028.39
2023-01-21T21:42:10.006Z,1028.39
2023-01-21T21:43:09.985Z,1028.36
2023-01-21T21:44:09.927Z,1028.39
2023-01-21T21:45:09.864Z,1028.35
2023-01-21T21:46:09.851Z,1028.37
2023-01-21T21:47:09.766Z,1028.33
2023-01-21T21:48:09.718Z,1028.31
2023-01-21T21:49:09.666Z,1028.31
2023-01-21T21:50:09.627Z,1028.31
2023-01-21T21:51:09.642Z,1028.36
2023-01-21T21:52:09.519Z,1028.34
2023-01-21T21:53:09.474Z,1028.35
2023-01-21T21:54:09.420Z,1028.34
2023-01-21T21:55:09.381Z,1028.32
2023-01-21T21:56:09.325Z,1028.32
2023-01-21T21:57:09.275Z,1028.28
2023-01-21T21:58:09.225Z,1028.24
2023-01-21T21:59:09.200Z,1028.20
2023-01-21T22:00:09.130Z,1028.25
2023-01-21T22:01:09.117Z,1028.25
2023-01-21T22:02:09.069Z,1028.23
2023-01-21T22:03:08.980Z,1028.24
2023-01-21T22:04:08.947Z,1028.25
2023-01-21T22:05:08.921Z,1028.24
2023-01-21T22:06:08.830Z,1028.22
2023-01-21T22:07:08.792Z,1028.19
2023-01-21T22:08:08.735Z,1028.19
2023-01-21T22:09:08.713Z,1028.22
2023-01-21T22:10:08.639Z,1028.26
2023-01-21T22:11:08.590Z,1028.27
2023-01-21T22:12:08.539Z,1028.25
